sensor_id;sensor_type;location;lat;lon;timestamp;P1;durP1;ratioP1;P2;durP2;ratioP2
25780;SDS011;13626;48.128;11.628;2023-02-15T00:01:51;35.13;;;10.32;;
25780;SDS011;13626;48.128;11.628;2023-02-15T00:04:20;48.38;;;10.52;;
25780;SDS011;13626;48.128;11.628;2023-02-15T00:06:48;55.22;;;10.98;;
25780;SDS011;13626;48.128;11.628;2023-02-15T00:09:15;40.40;;;10.75;;
25780;SDS011;13626;48.128;11.628;2023-02-15T00:11:42;29.27;;;11.00;;
25780;SDS011;13626;48.128;11.628;2023-02-15T00:14:17;36.58;;;10.73;;
25780;SDS011;13626;48.128;11.628;2023-02-15T00:16:45;16.50;;;9.13;;
25780;SDS011;13626;48.128;11.628;2023-02-15T00:19:13;19.10;;;9.73;;
25780;SDS011;13626;48.128;11.628;2023-02-15T00:21:41;24.10;;;9.20;;
25780;SDS011;13626;48.128;11.628;2023-02-15T00:24:09;24.90;;;9.48;;
25780;SDS011;13626;48.128;11.628;2023-02-15T00:26:37;18.88;;;10.93;;
25780;SDS011;13626;48.128;11.628;2023-02-15T00:29:05;18.63;;;10.25;;
25780;SDS011;13626;48.128;11.628;2023-02-15T00:31:33;44.78;;;10.98;;
25780;SDS011;13626;48.128;11.628;2023-02-15T00:34:22;30.70;;;10.27;;
25780;SDS011;13626;48.128;11.628;2023-02-15T00:36:47;17.08;;;9.35;;
25780;SDS011;13626;48.128;11.628;2023-02-15T00:39:15;22.67;;;9.82;;
25780;SDS011;13626;48.128;11.628;2023-02-15T00:41:43;38.80;;;10.75;;
25780;SDS011;13626;48.128;11.628;2023-02-15T00:44:10;54.17;;;10.60;;
25780;SDS011;13626;48.128;11.628;2023-02-15T00:46:38;34.33;;;10.10;;
25780;SDS011;13626;48.128;11.628;2023-02-15T00:49:05;30.70;;;9.85;;
25780;SDS011;13626;48.128;11.628;2023-02-15T00:51:32;34.53;;;9.52;;
25780;SDS011;13626;48.128;11.628;2023-02-15T00:54:00;36.50;;;9.88;;
25780;SDS011;13626;48.128;11.628;2023-02-15T00:56:27;38.13;;;10.18;;
25780;SDS011;13626;48.128;11.628;2023-02-15T00:58:54;36.78;;;9.60;;
25780;SDS011;13626;48.128;11.628;2023-02-15T01:01:22;21.45;;;9.50;;
25780;SDS011;13626;48.128;11.628;2023-02-15T01:03:49;18.38;;;9.00;;
25780;SDS011;13626;48.128;11.628;2023-02-15T01:06:17;32.08;;;9.68;;
25780;SDS011;13626;48.128;11.628;2023-02-15T01:08:45;49.85;;;10.82;;
25780;SDS011;13626;48.128;11.628;2023-02-15T01:11:13;29.90;;;9.57;;
25780;SDS011;13626;48.128;11.628;2023-02-15T01:13:41;23.77;;;8.88;;
25780;SDS011;13626;48.128;11.628;2023-02-15T01:16:08;24.88;;;8.90;;
25780;SDS011;13626;48.128;11.628;2023-02-15T01:18:36;19.00;;;9.40;;
25780;SDS011;13626;48.128;11.628;2023-02-15T01:21:13;36.05;;;9.98;;
25780;SDS011;13626;48.128;11.628;2023-02-15T01:23:41;22.05;;;10.07;;
25780;SDS011;13626;48.128;11.628;2023-02-15T01:26:09;41.67;;;10.23;;
25780;SDS011;13626;48.128;11.628;2023-02-15T01:28:36;31.55;;;9.70;;
25780;SDS011;13626;48.128;11.628;2023-02-15T01:31:05;36.70;;;10.18;;
25780;SDS011;13626;48.128;11.628;2023-02-15T01:33:32;32.45;;;10.32;;
25780;SDS011;13626;48.128;11.628;2023-02-15T01:36:00;34.13;;;9.60;;
25780;SDS011;13626;48.128;11.628;2023-02-15T01:38:28;69.15;;;11.10;;
25780;SDS011;13626;48.128;11.628;2023-02-15T01:40:55;45.17;;;10.23;;
25780;SDS011;13626;48.128;11.628;2023-02-15T01:43:46;32.67;;;11.13;;
25780;SDS011;13626;48.128;11.628;2023-02-15T01:46:14;28.48;;;10.35;;
25780;SDS011;13626;48.128;11.628;2023-02-15T01:48:49;24.15;;;10.38;;
25780;SDS011;13626;48.128;11.628;2023-02-15T01:51:17;77.15;;;12.63;;
25780;SDS011;13626;48.128;11.628;2023-02-15T01:53:48;48.30;;;11.90;;
25780;SDS011;13626;48.128;11.628;2023-02-15T01:56:23;38.00;;;10.88;;
25780;SDS011;13626;48.128;11.628;2023-02-15T01:58:52;30.55;;;10.55;;
25780;SDS011;13626;48.128;11.628;2023-02-15T02:01:19;59.20;;;14.38;;
25780;SDS011;13626;48.128;11.628;2023-02-15T02:03:56;22.83;;;10.52;;
25780;SDS011;13626;48.128;11.628;2023-02-15T02:06:25;28.48;;;10.60;;
25780;SDS011;13626;48.128;11.628;2023-02-15T02:08:53;26.13;;;10.48;;
25780;SDS011;13626;48.128;11.628;2023-02-15T02:11:21;23.30;;;10.23;;
25780;SDS011;13626;48.128;11.628;2023-02-15T02:13:48;21.45;;;10.40;;
25780;SDS011;13626;48.128;11.628;2023-02-15T02:21:54;16.75;;;10.00;;
25780;SDS011;13626;48.128;11.628;2023-02-15T02:25:28;31.45;;;11.10;;
25780;SDS011;13626;48.128;11.628;2023-02-15T02:35:22;26.00;;;11.02;;
25780;SDS011;13626;48.128;11.628;2023-02-15T02:38:00;16.17;;;9.63;;
25780;SDS011;13626;48.128;11.628;2023-02-15T02:40:41;22.23;;;10.60;;
25780;SDS011;13626;48.128;11.628;2023-02-15T02:43:11;19.35;;;10.45;;
25780;SDS011;13626;48.128;11.628;2023-02-15T02:45:51;17.77;;;9.95;;
25780;SDS011;13626;48.128;11.628;2023-02-15T02:48:21;32.97;;;9.43;;
25780;SDS011;13626;48.128;11.628;2023-02-15T02:50:49;35.80;;;10.68;;
25780;SDS011;13626;48.128;11.628;2023-02-15T02:53:17;16.77;;;9.95;;
25780;SDS011;13626;48.128;11.628;2023-02-15T02:55:45;26.50;;;10.50;;
25780;SDS011;13626;48.128;11.628;2023-02-15T02:58:28;66.82;;;10.40;;
25780;SDS011;13626;48.128;11.628;2023-02-15T03:00:57;59.75;;;10.25;;
25780;SDS011;13626;48.128;11.628;2023-02-15T03:06:03;24.25;;;9.90;;
25780;SDS011;13626;48.128;11.628;2023-02-15T03:08:51;23.83;;;9.93;;
25780;SDS011;13626;48.128;11.628;2023-02-15T03:11:20;35.92;;;9.82;;
25780;SDS011;13626;48.128;11.628;2023-02-15T03:13:47;26.58;;;11.07;;
25780;SDS011;13626;48.128;11.628;2023-02-15T03:16:16;21.77;;;10.32;;
25780;SDS011;13626;48.128;11.628;2023-02-15T03:18:55;18.83;;;10.70;;
25780;SDS011;13626;48.128;11.628;2023-02-15T03:21:26;17.55;;;9.43;;
25780;SDS011;13626;48.128;11.628;2023-02-15T03:23:57;20.75;;;9.70;;
25780;SDS011;13626;48.128;11.628;2023-02-15T03:26:26;21.65;;;9.48;;
25780;SDS011;13626;48.128;11.628;2023-02-15T03:28:55;22.80;;;9.20;;
25780;SDS011;13626;48.128;11.628;2023-02-15T03:31:23;16.23;;;8.85;;
25780;SDS011;13626;48.128;11.628;2023-02-15T03:33:58;25.02;;;9.30;;
25780;SDS011;13626;48.128;11.628;2023-02-15T03:36:31;21.75;;;9.80;;
25780;SDS011;13626;48.128;11.628;2023-02-15T03:41:32;17.75;;;8.63;;
25780;SDS011;13626;48.128;11.628;2023-02-15T03:44:04;18.88;;;10.65;;
25780;SDS011;13626;48.128;11.628;2023-02-15T03:46:37;17.58;;;10.18;;
25780;SDS011;13626;48.128;11.628;2023-02-15T03:49:12;20.35;;;9.15;;
25780;SDS011;13626;48.128;11.628;2023-02-15T03:51:42;16.40;;;9.82;;
25780;SDS011;13626;48.128;11.628;2023-02-15T03:54:15;16.05;;;9.23;;
25780;SDS011;13626;48.128;11.628;2023-02-15T03:57:02;19.80;;;10.23;;
25780;SDS011;13626;48.128;11.628;2023-02-15T03:59:48;16.77;;;10.02;;
25780;SDS011;13626;48.128;11.628;2023-02-15T04:02:37;19.60;;;10.60;;
25780;SDS011;13626;48.128;11.628;2023-02-15T04:05:05;15.57;;;9.65;;
25780;SDS011;13626;48.128;11.628;2023-02-15T04:07:32;14.93;;;8.82;;
25780;SDS011;13626;48.128;11.628;2023-02-15T04:09:59;24.50;;;9.82;;
25780;SDS011;13626;48.128;11.628;2023-02-15T04:12:45;27.65;;;9.55;;
25780;SDS011;13626;48.128;11.628;2023-02-15T04:15:13;23.13;;;9.55;;
25780;SDS011;13626;48.128;11.628;2023-02-15T04:17:58;19.15;;;9.52;;
25780;SDS011;13626;48.128;11.628;2023-02-15T04:20:28;20.95;;;10.20;;
25780;SDS011;13626;48.128;11.628;2023-02-15T04:23:14;27.35;;;11.57;;
25780;SDS011;13626;48.128;11.628;2023-02-15T04:26:02;19.92;;;9.88;;
25780;SDS011;13626;48.128;11.628;2023-02-15T04:28:30;14.52;;;8.77;;
25780;SDS011;13626;48.128;11.628;2023-02-15T04:30:57;17.83;;;10.02;;
25780;SDS011;13626;48.128;11.628;2023-02-15T04:33:25;19.13;;;10.23;;
25780;SDS011;13626;48.128;11.628;2023-02-15T04:35:52;17.38;;;9.75;;
25780;SDS011;13626;48.128;11.628;2023-02-15T04:38:19;16.02;;;9.50;;
25780;SDS011;13626;48.128;11.628;2023-02-15T04:40:51;22.85;;;10.38;;
25780;SDS011;13626;48.128;11.628;2023-02-15T04:43:19;21.55;;;10.65;;
25780;SDS011;13626;48.128;11.628;2023-02-15T04:45:49;16.83;;;9.77;;
25780;SDS011;13626;48.128;11.628;2023-02-15T04:48:17;17.55;;;9.48;;
25780;SDS011;13626;48.128;11.628;2023-02-15T04:50:45;19.45;;;9.93;;
25780;SDS011;13626;48.128;11.628;2023-02-15T04:53:12;21.30;;;8.98;;
25780;SDS011;13626;48.128;11.628;2023-02-15T04:55:39;19.75;;;10.00;;
25780;SDS011;13626;48.128;11.628;2023-02-15T04:58:06;20.45;;;9.18;;
25780;SDS011;13626;48.128;11.628;2023-02-15T05:00:33;23.27;;;9.70;;
25780;SDS011;13626;48.128;11.628;2023-02-15T05:03:01;18.40;;;9.65;;
25780;SDS011;13626;48.128;11.628;2023-02-15T05:05:28;21.58;;;10.50;;
25780;SDS011;13626;48.128;11.628;2023-02-15T05:07:55;18.05;;;9.70;;
25780;SDS011;13626;48.128;11.628;2023-02-15T05:10:22;19.17;;;8.77;;
25780;SDS011;13626;48.128;11.628;2023-02-15T05:12:49;20.98;;;8.70;;
25780;SDS011;13626;48.128;11.628;2023-02-15T05:15:16;24.67;;;9.85;;
25780;SDS011;13626;48.128;11.628;2023-02-15T05:17:44;20.63;;;8.55;;
25780;SDS011;13626;48.128;11.628;2023-02-15T05:20:12;39.58;;;11.10;;
25780;SDS011;13626;48.128;11.628;2023-02-15T05:22:39;31.25;;;9.70;;
25780;SDS011;13626;48.128;11.628;2023-02-15T05:25:08;25.85;;;10.00;;
25780;SDS011;13626;48.128;11.628;2023-02-15T05:27:54;27.27;;;9.15;;
25780;SDS011;13626;48.128;11.628;2023-02-15T05:30:40;25.10;;;9.32;;
25780;SDS011;13626;48.128;11.628;2023-02-15T05:33:07;28.95;;;10.20;;
25780;SDS011;13626;48.128;11.628;2023-02-15T05:35:35;22.15;;;9.57;;
25780;SDS011;13626;48.128;11.628;2023-02-15T05:38:02;26.58;;;10.27;;
25780;SDS011;13626;48.128;11.628;2023-02-15T05:40:29;40.92;;;10.52;;
25780;SDS011;13626;48.128;11.628;2023-02-15T05:42:56;21.55;;;9.35;;
25780;SDS011;13626;48.128;11.628;2023-02-15T05:45:23;38.33;;;10.63;;
25780;SDS011;13626;48.128;11.628;2023-02-15T05:47:51;17.15;;;9.50;;
25780;SDS011;13626;48.128;11.628;2023-02-15T05:50:18;28.67;;;9.93;;
25780;SDS011;13626;48.128;11.628;2023-02-15T05:52:45;26.10;;;9.90;;
25780;SDS011;13626;48.128;11.628;2023-02-15T05:55:12;32.15;;;10.70;;
25780;SDS011;13626;48.128;11.628;2023-02-15T05:57:39;32.63;;;9.85;;
25780;SDS011;13626;48.128;11.628;2023-02-15T06:00:07;23.17;;;10.23;;
25780;SDS011;13626;48.128;11.628;2023-02-15T06:02:36;23.15;;;10.32;;
25780;SDS011;13626;48.128;11.628;2023-02-15T06:05:04;24.25;;;10.15;;
25780;SDS011;13626;48.128;11.628;2023-02-15T06:07:31;19.98;;;10.00;;
25780;SDS011;13626;48.128;11.628;2023-02-15T06:09:58;24.58;;;9.38;;
25780;SDS011;13626;48.128;11.628;2023-02-15T06:12:25;28.90;;;10.23;;
25780;SDS011;13626;48.128;11.628;2023-02-15T06:14:53;20.45;;;10.63;;
25780;SDS011;13626;48.128;11.628;2023-02-15T06:17:20;22.73;;;10.07;;
25780;SDS011;13626;48.128;11.628;2023-02-15T06:19:47;27.77;;;10.63;;
25780;SDS011;13626;48.128;11.628;2023-02-15T06:22:15;16.00;;;9.40;;
25780;SDS011;13626;48.128;11.628;2023-02-15T06:24:42;25.02;;;9.70;;
25780;SDS011;13626;48.128;11.628;2023-02-15T06:27:09;17.70;;;9.40;;
25780;SDS011;13626;48.128;11.628;2023-02-15T06:29:37;21.23;;;8.98;;
25780;SDS011;13626;48.128;11.628;2023-02-15T06:32:04;23.90;;;9.85;;
25780;SDS011;13626;48.128;11.628;2023-02-15T06:34:32;22.90;;;9.43;;
25780;SDS011;13626;48.128;11.628;2023-02-15T06:36:59;21.98;;;10.02;;
25780;SDS011;13626;48.128;11.628;2023-02-15T06:39:27;48.88;;;10.13;;
25780;SDS011;13626;48.128;11.628;2023-02-15T06:41:54;21.08;;;9.43;;
25780;SDS011;13626;48.128;11.628;2023-02-15T06:44:21;30.05;;;9.68;;
25780;SDS011;13626;48.128;11.628;2023-02-15T06:46:48;22.95;;;9.70;;
25780;SDS011;13626;48.128;11.628;2023-02-15T06:49:15;20.15;;;10.05;;
25780;SDS011;13626;48.128;11.628;2023-02-15T06:51:43;23.08;;;9.40;;
25780;SDS011;13626;48.128;11.628;2023-02-15T06:54:10;34.15;;;11.18;;
25780;SDS011;13626;48.128;11.628;2023-02-15T06:56:37;18.35;;;10.10;;
25780;SDS011;13626;48.128;11.628;2023-02-15T06:59:04;17.55;;;9.55;;
25780;SDS011;13626;48.128;11.628;2023-02-15T07:01:32;29.05;;;9.70;;
25780;SDS011;13626;48.128;11.628;2023-02-15T07:03:59;25.25;;;9.68;;
25780;SDS011;13626;48.128;11.628;2023-02-15T07:06:26;24.30;;;8.88;;
25780;SDS011;13626;48.128;11.628;2023-02-15T07:08:53;31.73;;;9.43;;
25780;SDS011;13626;48.128;11.628;2023-02-15T07:11:20;20.75;;;9.30;;
25780;SDS011;13626;48.128;11.628;2023-02-15T07:14:06;27.83;;;9.77;;
25780;SDS011;13626;48.128;11.628;2023-02-15T07:16:33;28.40;;;9.85;;
25780;SDS011;13626;48.128;11.628;2023-02-15T07:19:00;25.58;;;9.48;;
25780;SDS011;13626;48.128;11.628;2023-02-15T07:21:27;14.48;;;9.18;;
25780;SDS011;13626;48.128;11.628;2023-02-15T07:23:58;26.23;;;9.63;;
25780;SDS011;13626;48.128;11.628;2023-02-15T07:26:25;19.80;;;9.63;;
25780;SDS011;13626;48.128;11.628;2023-02-15T07:28:53;21.48;;;9.27;;
25780;SDS011;13626;48.128;11.628;2023-02-15T07:31:20;25.77;;;10.27;;
25780;SDS011;13626;48.128;11.628;2023-02-15T07:33:47;23.55;;;9.48;;
25780;SDS011;13626;48.128;11.628;2023-02-15T07:36:14;17.80;;;9.68;;
25780;SDS011;13626;48.128;11.628;2023-02-15T07:38:41;25.45;;;10.13;;
25780;SDS011;13626;48.128;11.628;2023-02-15T07:41:10;17.65;;;9.95;;
25780;SDS011;13626;48.128;11.628;2023-02-15T07:43:38;19.30;;;9.65;;
25780;SDS011;13626;48.128;11.628;2023-02-15T07:46:07;27.88;;;10.40;;
25780;SDS011;13626;48.128;11.628;2023-02-15T07:48:35;17.83;;;9.82;;
25780;SDS011;13626;48.128;11.628;2023-02-15T07:51:03;17.45;;;9.50;;
25780;SDS011;13626;48.128;11.628;2023-02-15T07:53:31;18.15;;;10.10;;
25780;SDS011;13626;48.128;11.628;2023-02-15T07:56:03;16.60;;;9.25;;
25780;SDS011;13626;48.128;11.628;2023-02-15T07:58:30;16.33;;;9.57;;
25780;SDS011;13626;48.128;11.628;2023-02-15T08:01:27;16.80;;;9.77;;
25780;SDS011;13626;48.128;11.628;2023-02-15T08:03:54;19.35;;;9.90;;
25780;SDS011;13626;48.128;11.628;2023-02-15T08:06:23;16.13;;;9.88;;
25780;SDS011;13626;48.128;11.628;2023-02-15T08:08:50;17.85;;;9.18;;
25780;SDS011;13626;48.128;11.628;2023-02-15T08:11:19;20.83;;;10.70;;
25780;SDS011;13626;48.128;11.628;2023-02-15T08:14:03;29.15;;;11.20;;
25780;SDS011;13626;48.128;11.628;2023-02-15T08:16:35;17.25;;;10.57;;
25780;SDS011;13626;48.128;11.628;2023-02-15T08:19:07;18.40;;;10.32;;
25780;SDS011;13626;48.128;11.628;2023-02-15T08:21:35;15.63;;;9.60;;
25780;SDS011;13626;48.128;11.628;2023-02-15T08:24:02;17.33;;;10.15;;
25780;SDS011;13626;48.128;11.628;2023-02-15T08:26:30;20.55;;;12.10;;
25780;SDS011;13626;48.128;11.628;2023-02-15T08:28:58;22.70;;;11.52;;
25780;SDS011;13626;48.128;11.628;2023-02-15T08:31:26;18.52;;;11.00;;
25780;SDS011;13626;48.128;11.628;2023-02-15T08:33:54;19.67;;;11.07;;
25780;SDS011;13626;48.128;11.628;2023-02-15T08:36:23;20.13;;;11.27;;
25780;SDS011;13626;48.128;11.628;2023-02-15T08:38:51;19.13;;;11.13;;
25780;SDS011;13626;48.128;11.628;2023-02-15T08:41:19;21.73;;;12.27;;
25780;SDS011;13626;48.128;11.628;2023-02-15T08:43:48;17.80;;;10.82;;
25780;SDS011;13626;48.128;11.628;2023-02-15T08:46:17;18.60;;;11.40;;
25780;SDS011;13626;48.128;11.628;2023-02-15T08:48:45;19.75;;;11.15;;
25780;SDS011;13626;48.128;11.628;2023-02-15T08:51:13;18.15;;;11.10;;
25780;SDS011;13626;48.128;11.628;2023-02-15T08:53:44;18.92;;;10.93;;
25780;SDS011;13626;48.128;11.628;2023-02-15T08:56:12;17.80;;;11.07;;
25780;SDS011;13626;48.128;11.628;2023-02-15T08:58:39;16.98;;;10.15;;
25780;SDS011;13626;48.128;11.628;2023-02-15T09:01:18;16.67;;;11.50;;
25780;SDS011;13626;48.128;11.628;2023-02-15T09:03:50;18.27;;;10.77;;
25780;SDS011;13626;48.128;11.628;2023-02-15T09:06:23;15.45;;;10.27;;
25780;SDS011;13626;48.128;11.628;2023-02-15T09:08:51;17.45;;;11.00;;
25780;SDS011;13626;48.128;11.628;2023-02-15T09:11:19;17.27;;;10.35;;
25780;SDS011;13626;48.128;11.628;2023-02-15T09:13:51;13.52;;;9.57;;
25780;SDS011;13626;48.128;11.628;2023-02-15T09:16:20;15.00;;;9.70;;
25780;SDS011;13626;48.128;11.628;2023-02-15T09:18:47;13.48;;;9.18;;
25780;SDS011;13626;48.128;11.628;2023-02-15T09:21:15;15.30;;;10.00;;
25780;SDS011;13626;48.128;11.628;2023-02-15T09:23:43;15.85;;;11.18;;
25780;SDS011;13626;48.128;11.628;2023-02-15T09:26:12;13.60;;;10.02;;
25780;SDS011;13626;48.128;11.628;2023-02-15T09:28:39;17.90;;;10.98;;
25780;SDS011;13626;48.128;11.628;2023-02-15T09:33:37;16.00;;;11.18;;
25780;SDS011;13626;48.128;11.628;2023-02-15T09:36:05;15.88;;;11.40;;
25780;SDS011;13626;48.128;11.628;2023-02-15T09:38:32;14.43;;;10.38;;
25780;SDS011;13626;48.128;11.628;2023-02-15T09:43:33;13.77;;;10.68;;
25780;SDS011;13626;48.128;11.628;2023-02-15T09:46:06;15.95;;;11.00;;
25780;SDS011;13626;48.128;11.628;2023-02-15T09:48:39;14.75;;;11.10;;
25780;SDS011;13626;48.128;11.628;2023-02-15T09:51:22;15.35;;;11.05;;
25780;SDS011;13626;48.128;11.628;2023-02-15T09:56:39;17.42;;;10.85;;
25780;SDS011;13626;48.128;11.628;2023-02-15T10:12:32;13.68;;;11.85;;
25780;SDS011;13626;48.128;11.628;2023-02-15T10:18:32;14.52;;;10.00;;
25780;SDS011;13626;48.128;11.628;2023-02-15T10:20:45;12.30;;;10.20;;
25780;SDS011;13626;48.128;11.628;2023-02-15T10:23:32;17.83;;;10.27;;
25780;SDS011;13626;48.128;11.628;2023-02-15T10:26:19;14.38;;;10.45;;
25780;SDS011;13626;48.128;11.628;2023-02-15T10:28:56;13.27;;;10.45;;
25780;SDS011;13626;48.128;11.628;2023-02-15T10:31:25;12.30;;;10.18;;
25780;SDS011;13626;48.128;11.628;2023-02-15T10:39:21;12.60;;;10.13;;
25780;SDS011;13626;48.128;11.628;2023-02-15T10:41:53;13.50;;;9.75;;
25780;SDS011;13626;48.128;11.628;2023-02-15T10:59:47;15.15;;;10.80;;
25780;SDS011;13626;48.128;11.628;2023-02-15T11:05:08;16.77;;;10.13;;
25780;SDS011;13626;48.128;11.628;2023-02-15T11:07:43;20.20;;;10.93;;
25780;SDS011;13626;48.128;11.628;2023-02-15T11:12:43;13.63;;;10.15;;
25780;SDS011;13626;48.128;11.628;2023-02-15T11:15:33;16.10;;;10.77;;
25780;SDS011;13626;48.128;11.628;2023-02-15T11:18:05;16.23;;;10.57;;
25780;SDS011;13626;48.128;11.628;2023-02-15T11:23:07;17.50;;;11.07;;
25780;SDS011;13626;48.128;11.628;2023-02-15T11:25:41;18.20;;;10.77;;
25780;SDS011;13626;48.128;11.628;2023-02-15T11:28:12;22.50;;;11.30;;
25780;SDS011;13626;48.128;11.628;2023-02-15T11:30:45;20.77;;;10.75;;
25780;SDS011;13626;48.128;11.628;2023-02-15T11:33:20;16.20;;;11.20;;
25780;SDS011;13626;48.128;11.628;2023-02-15T11:35:50;19.30;;;11.40;;
25780;SDS011;13626;48.128;11.628;2023-02-15T11:38:24;15.95;;;10.95;;
25780;SDS011;13626;48.128;11.628;2023-02-15T11:41:00;14.90;;;10.02;;
25780;SDS011;13626;48.128;11.628;2023-02-15T11:43:32;19.50;;;11.15;;
25780;SDS011;13626;48.128;11.628;2023-02-15T11:46:02;16.50;;;10.82;;
25780;SDS011;13626;48.128;11.628;2023-02-15T11:48:29;17.17;;;11.20;;
25780;SDS011;13626;48.128;11.628;2023-02-15T11:50:58;15.48;;;11.23;;
25780;SDS011;13626;48.128;11.628;2023-02-15T11:53:27;15.48;;;10.75;;
25780;SDS011;13626;48.128;11.628;2023-02-15T11:55:55;19.73;;;10.70;;
25780;SDS011;13626;48.128;11.628;2023-02-15T11:58:43;18.55;;;11.05;;
25780;SDS011;13626;48.128;11.628;2023-02-15T12:06:18;16.75;;;10.48;;
25780;SDS011;13626;48.128;11.628;2023-02-15T12:08:50;17.52;;;10.98;;
25780;SDS011;13626;48.128;11.628;2023-02-15T12:11:25;15.90;;;10.32;;
25780;SDS011;13626;48.128;11.628;2023-02-15T12:13:59;18.15;;;10.68;;
25780;SDS011;13626;48.128;11.628;2023-02-15T12:16:27;15.40;;;9.75;;
25780;SDS011;13626;48.128;11.628;2023-02-15T12:18:56;19.08;;;10.70;;
25780;SDS011;13626;48.128;11.628;2023-02-15T12:21:25;17.38;;;10.90;;
25780;SDS011;13626;48.128;11.628;2023-02-15T12:23:54;19.90;;;11.95;;
25780;SDS011;13626;48.128;11.628;2023-02-15T12:28:52;17.40;;;10.65;;
25780;SDS011;13626;48.128;11.628;2023-02-15T12:34:30;17.02;;;10.57;;
25780;SDS011;13626;48.128;11.628;2023-02-15T12:37:07;16.15;;;10.23;;
25780;SDS011;13626;48.128;11.628;2023-02-15T12:39:36;18.52;;;11.27;;
25780;SDS011;13626;48.128;11.628;2023-02-15T12:42:04;19.30;;;10.27;;
25780;SDS011;13626;48.128;11.628;2023-02-15T12:44:35;17.20;;;9.98;;
25780;SDS011;13626;48.128;11.628;2023-02-15T12:52:02;16.92;;;10.23;;
25780;SDS011;13626;48.128;11.628;2023-02-15T12:54:31;16.80;;;10.23;;
25780;SDS011;13626;48.128;11.628;2023-02-15T12:56:59;15.48;;;10.02;;
25780;SDS011;13626;48.128;11.628;2023-02-15T12:59:26;18.95;;;11.38;;
25780;SDS011;13626;48.128;11.628;2023-02-15T13:01:53;17.63;;;10.50;;
25780;SDS011;13626;48.128;11.628;2023-02-15T13:04:22;16.83;;;10.88;;
25780;SDS011;13626;48.128;11.628;2023-02-15T13:06:50;20.95;;;11.18;;
25780;SDS011;13626;48.128;11.628;2023-02-15T13:14:42;19.58;;;11.18;;
25780;SDS011;13626;48.128;11.628;2023-02-15T13:17:10;18.40;;;10.88;;
25780;SDS011;13626;48.128;11.628;2023-02-15T13:19:44;16.98;;;10.70;;
25780;SDS011;13626;48.128;11.628;2023-02-15T13:22:25;14.75;;;10.60;;
25780;SDS011;13626;48.128;11.628;2023-02-15T13:24:55;17.00;;;10.43;;
25780;SDS011;13626;48.128;11.628;2023-02-15T13:27:26;15.82;;;9.85;;
25780;SDS011;13626;48.128;11.628;2023-02-15T13:29:57;15.18;;;9.98;;
25780;SDS011;13626;48.128;11.628;2023-02-15T13:32:30;16.27;;;10.68;;
25780;SDS011;13626;48.128;11.628;2023-02-15T13:34:58;20.33;;;10.73;;
25780;SDS011;13626;48.128;11.628;2023-02-15T13:40:01;17.35;;;10.40;;
25780;SDS011;13626;48.128;11.628;2023-02-15T13:50:32;18.30;;;11.30;;
25780;SDS011;13626;48.128;11.628;2023-02-15T13:55:51;16.65;;;10.30;;
25780;SDS011;13626;48.128;11.628;2023-02-15T14:03:44;18.45;;;10.75;;
25780;SDS011;13626;48.128;11.628;2023-02-15T14:06:28;18.05;;;11.20;;
25780;SDS011;13626;48.128;11.628;2023-02-15T14:14:13;20.75;;;11.80;;
25780;SDS011;13626;48.128;11.628;2023-02-15T14:16:48;15.95;;;10.35;;
25780;SDS011;13626;48.128;11.628;2023-02-15T14:24:42;16.38;;;11.88;;
25780;SDS011;13626;48.128;11.628;2023-02-15T14:29:56;25.23;;;12.70;;
25780;SDS011;13626;48.128;11.628;2023-02-15T14:34:55;20.40;;;12.10;;
25780;SDS011;13626;48.128;11.628;2023-02-15T14:37:38;20.52;;;12.32;;
25780;SDS011;13626;48.128;11.628;2023-02-15T14:42:58;22.35;;;13.35;;
25780;SDS011;13626;48.128;11.628;2023-02-15T14:48:05;20.42;;;13.43;;
25780;SDS011;13626;48.128;11.628;2023-02-15T14:50:40;20.60;;;12.70;;
25780;SDS011;13626;48.128;11.628;2023-02-15T14:58:37;24.23;;;13.65;;
25780;SDS011;13626;48.128;11.628;2023-02-15T15:01:05;21.85;;;14.45;;
25780;SDS011;13626;48.128;11.628;2023-02-15T15:03:33;20.90;;;13.48;;
25780;SDS011;13626;48.128;11.628;2023-02-15T15:06:02;24.52;;;14.95;;
25780;SDS011;13626;48.128;11.628;2023-02-15T15:08:36;21.83;;;13.82;;
25780;SDS011;13626;48.128;11.628;2023-02-15T15:14:08;23.98;;;13.07;;
25780;SDS011;13626;48.128;11.628;2023-02-15T15:19:04;20.25;;;13.80;;
25780;SDS011;13626;48.128;11.628;2023-02-15T15:29:47;21.80;;;14.70;;
25780;SDS011;13626;48.128;11.628;2023-02-15T15:32:14;22.08;;;14.65;;
25780;SDS011;13626;48.128;11.628;2023-02-15T15:37:45;22.27;;;14.45;;
25780;SDS011;13626;48.128;11.628;2023-02-15T15:40:19;22.20;;;14.68;;
25780;SDS011;13626;48.128;11.628;2023-02-15T15:50:31;27.83;;;15.38;;
25780;SDS011;13626;48.128;11.628;2023-02-15T15:53:01;23.10;;;14.60;;
25780;SDS011;13626;48.128;11.628;2023-02-15T15:55:29;24.92;;;14.48;;
25780;SDS011;13626;48.128;11.628;2023-02-15T15:58:05;23.77;;;15.23;;
25780;SDS011;13626;48.128;11.628;2023-02-15T16:00:34;26.35;;;14.88;;
25780;SDS011;13626;48.128;11.628;2023-02-15T16:03:02;23.38;;;14.68;;
25780;SDS011;13626;48.128;11.628;2023-02-15T16:05:36;20.30;;;13.65;;
25780;SDS011;13626;48.128;11.628;2023-02-15T16:08:03;24.43;;;15.47;;
25780;SDS011;13626;48.128;11.628;2023-02-15T16:10:31;24.75;;;14.85;;
25780;SDS011;13626;48.128;11.628;2023-02-15T16:13:00;23.23;;;13.90;;
25780;SDS011;13626;48.128;11.628;2023-02-15T16:15:33;26.17;;;15.45;;
25780;SDS011;13626;48.128;11.628;2023-02-15T16:18:01;26.02;;;15.73;;
25780;SDS011;13626;48.128;11.628;2023-02-15T16:20:29;28.25;;;16.00;;
25780;SDS011;13626;48.128;11.628;2023-02-15T16:28:07;37.78;;;16.30;;
25780;SDS011;13626;48.128;11.628;2023-02-15T16:30:35;28.85;;;14.43;;
25780;SDS011;13626;48.128;11.628;2023-02-15T16:33:10;25.40;;;15.15;;
25780;SDS011;13626;48.128;11.628;2023-02-15T16:35:39;28.27;;;15.30;;
25780;SDS011;13626;48.128;11.628;2023-02-15T16:38:08;27.25;;;15.57;;
25780;SDS011;13626;48.128;11.628;2023-02-15T16:40:45;27.77;;;16.83;;
25780;SDS011;13626;48.128;11.628;2023-02-15T16:43:18;25.83;;;14.75;;
25780;SDS011;13626;48.128;11.628;2023-02-15T16:45:46;24.33;;;14.27;;
25780;SDS011;13626;48.128;11.628;2023-02-15T16:48:16;23.83;;;14.18;;
25780;SDS011;13626;48.128;11.628;2023-02-15T16:50:48;29.92;;;15.35;;
25780;SDS011;13626;48.128;11.628;2023-02-15T16:53:23;28.55;;;16.00;;
25780;SDS011;13626;48.128;11.628;2023-02-15T16:55:53;26.48;;;15.13;;
25780;SDS011;13626;48.128;11.628;2023-02-15T16:58:28;30.80;;;14.93;;
25780;SDS011;13626;48.128;11.628;2023-02-15T17:00:57;23.80;;;14.52;;
25780;SDS011;13626;48.128;11.628;2023-02-15T17:03:26;28.27;;;15.32;;
25780;SDS011;13626;48.128;11.628;2023-02-15T17:05:54;26.35;;;15.52;;
25780;SDS011;13626;48.128;11.628;2023-02-15T17:08:32;31.55;;;15.50;;
25780;SDS011;13626;48.128;11.628;2023-02-15T17:14:28;38.15;;;16.00;;
25780;SDS011;13626;48.128;11.628;2023-02-15T17:16:31;45.53;;;14.95;;
25780;SDS011;13626;48.128;11.628;2023-02-15T17:19:07;36.22;;;13.90;;
25780;SDS011;13626;48.128;11.628;2023-02-15T17:21:37;26.80;;;14.30;;
25780;SDS011;13626;48.128;11.628;2023-02-15T17:24:13;30.23;;;14.82;;